Time;durP1;ratioP1;P1;durP2;ratioP2;P2;SDS_P1;SDS_P2;PMS_P1;PMS_P2;Temp;Humidity;BMP_temperature;BMP_pressure;BME280_temperature;BME280_humidity;BME280_pressure;Samples;Min_cycle;Max_cycle;Signal;HPM_P1;HPM_P2
2023/03/20 00:00:58;;;;;;;;;26.50;22.00;;;;;9.02;56.85;102052.34;2024109;28;2842031;-75
2023/03/20 00:02:18;;;;;;;;;21.67;18.00;;;;;9.01;57.18;102047.97;1989132;28;3579423;-75
2023/03/20 00:03:28;;;;;;;;;22.00;18.00;;;;;9.00;56.94;102040.97;2016372;28;2831603;-75
2023/03/20 00:04:40;;;;;;;;;23.60;20.20;;;;;9.00;57.25;102054.97;2034703;28;3582574;-75
2023/03/20 00:05:52;;;;;;;;;28.00;21.40;;;;;8.98;57.26;102048.00;2052891;27;3597086;-75
2023/03/20 00:07:04;;;;;;;;;23.67;22.00;;;;;8.96;57.05;102042.72;2016587;27;3573164;-75
2023/03/20 00:08:16;;;;;;;;;23.67;21.00;;;;;8.97;57.13;102056.72;2019789;28;3575231;-75
2023/03/20 00:09:27;;;;;;;;;22.40;19.80;;;;;8.96;57.15;102055.84;2027464;28;3581445;-75
2023/03/20 00:10:43;;;;;;;;;23.40;21.00;;;;;8.96;57.65;102055.00;2038554;28;3581851;-75
2023/03/20 00:11:55;;;;;;;;;23.00;20.00;;;;;8.95;57.55;102051.50;2015370;28;3578320;-75
2023/03/20 00:13:13;;;;;;;;;24.00;21.00;;;;;8.94;57.56;102057.59;2036301;28;3582488;-75
2023/03/20 00:14:25;;;;;;;;;24.00;19.67;;;;;8.93;57.36;102050.63;2015271;28;3579390;-75
2023/03/20 00:15:40;;;;;;;;;22.67;19.67;;;;;8.93;57.52;102055.00;2025161;28;3570016;-75
2023/03/20 00:16:52;;;;;;;;;23.33;20.67;;;;;8.94;57.59;102051.53;2016304;28;3565881;-75
2023/03/20 00:18:19;;;;;;;;;22.00;22.00;;;;;8.92;57.36;102051.50;2042217;27;3566887;-75
2023/03/20 00:19:32;;;;;;;;;21.33;19.33;;;;;8.91;57.29;102052.41;2053089;27;1844043;-75
2023/03/20 00:20:45;;;;;;;;;20.00;19.00;;;;;8.90;57.30;102055.88;1992841;28;3570413;-75
2023/03/20 00:21:57;;;;;;;;;23.00;17.00;;;;;8.90;57.58;102061.13;2015259;28;3573155;-75
2023/03/20 00:23:08;;;;;;;;;26.67;20.67;;;;;8.91;57.62;102059.38;2023424;28;3575228;-75
2023/03/20 00:24:21;;;;;;;;;20.67;18.00;;;;;8.89;57.08;102059.38;2032361;28;3574754;-75
2023/03/20 00:25:33;;;;;;;;;19.67;17.33;;;;;8.88;57.40;102057.66;2015366;28;3567294;-75
2023/03/20 00:26:47;;;;;;;;;25.00;21.67;;;;;8.87;57.70;102054.16;2032092;28;3573236;-75
2023/03/20 00:27:57;;;;;;;;;22.00;21.00;;;;;8.87;57.57;102050.66;2016196;28;2832541;-75
2023/03/20 00:29:18;;;;;;;;;21.20;19.80;;;;;8.87;57.94;102067.25;2011299;28;3574151;-75
2023/03/20 00:30:29;;;;;;;;;24.00;20.00;;;;;8.86;57.35;102076.03;2017064;28;2837753;-75
2023/03/20 00:31:40;;;;;;;;;22.50;20.50;;;;;8.86;57.39;102062.03;2015191;28;2836728;-75
2023/03/20 00:32:52;;;;;;;;;20.67;17.00;;;;;8.85;57.44;102062.91;2016218;27;3563770;-75
2023/03/20 00:34:11;;;;;;;;;24.67;22.33;;;;;8.84;57.62;102062.03;2029145;28;3578389;-75
2023/03/20 00:35:32;;;;;;;;;28.00;23.00;;;;;8.83;57.71;102068.16;2014254;28;3590229;-75
2023/03/20 00:36:43;;;;;;;;;20.67;18.00;;;;;8.83;58.18;102072.53;2008711;28;3575264;-75
2023/03/20 00:37:57;;;;;;;;;19.33;17.00;;;;;8.83;57.71;102069.91;2032410;28;3575228;-75
2023/03/20 00:39:08;;;;;;;;;22.00;17.50;;;;;8.82;57.79;102069.03;2017029;28;2839837;-75
2023/03/20 00:40:20;;;;;;;;;24.00;22.00;;;;;8.82;58.09;102063.78;2015209;28;3576286;-75
2023/03/20 00:41:53;;;;;;;;;24.50;21.00;;;;;8.81;57.91;102058.56;2017180;28;2844070;-75
2023/03/20 00:43:04;;;;;;;;;23.00;18.67;;;;;8.80;58.07;102055.06;1990820;28;3598160;-75
2023/03/20 00:44:30;;;;;;;;;25.80;24.40;;;;;8.78;57.94;102057.69;2023830;27;3589902;-75
2023/03/20 00:45:44;;;;;;;;;26.67;23.00;;;;;8.76;57.87;102063.81;2025671;27;3589815;-75
2023/03/20 00:47:19;;;;;;;;;29.00;26.00;;;;;8.76;58.12;102064.69;2017313;28;2854432;-75
2023/03/20 00:48:31;;;;;;;;;25.00;22.33;;;;;8.75;58.29;102065.56;1991614;28;3589849;-75
2023/03/20 00:49:44;;;;;;;;;24.00;23.00;;;;;8.73;58.15;102066.44;2014500;28;3583571;-75
2023/03/20 00:50:57;;;;;;;;;25.00;25.00;;;;;8.73;58.22;102064.72;2015008;28;3593976;-75
2023/03/20 00:52:12;;;;;;;;;23.33;21.33;;;;;8.71;58.09;102061.22;2015172;28;3574201;-75
2023/03/20 00:53:22;;;;;;;;;27.00;24.00;;;;;8.70;58.05;102059.47;2016562;28;2858627;-75
2023/03/20 00:54:35;;;;;;;;;25.67;24.33;;;;;8.69;58.03;102057.75;2006006;28;3584650;-75
2023/03/20 00:55:46;;;;;;;;;22.60;20.40;;;;;8.69;58.25;102056.84;2028085;28;3574147;-75
2023/03/20 00:57:07;;;;;;;;;29.33;23.00;;;;;8.67;58.02;102056.84;2033805;28;3596064;-75
2023/03/20 00:58:17;;;;;;;;;26.50;24.00;;;;;8.66;58.17;102060.38;2015804;28;2850280;-75
2023/03/20 00:59:34;;;;;;;;;25.00;22.00;;;;;8.66;58.47;102057.75;2023583;27;3572082;-75
2023/03/20 01:00:46;;;;;;;;;26.33;24.00;;;;;8.64;58.25;102059.50;2020443;28;3588763;-75
2023/03/20 01:02:00;;;;;;;;;25.20;22.20;;;;;8.62;58.40;102062.09;2035080;28;3580892;-75
2023/03/20 01:03:17;;;;;;;;;27.50;25.00;;;;;8.61;58.32;102056.88;1995760;28;2840862;-75
2023/03/20 01:04:37;;;;;;;;;25.50;21.50;;;;;8.62;58.66;102061.22;1993624;28;2846095;-75
2023/03/20 01:05:49;;;;;;;;;25.33;24.67;;;;;8.60;58.15;102060.38;2004838;27;3585648;-75
2023/03/20 01:07:00;;;;;;;;;28.00;23.00;;;;;8.58;58.46;102056.84;2030066;27;2848231;-75
2023/03/20 01:08:16;;;;;;;;;27.40;24.80;;;;;8.57;58.55;102053.34;2008287;28;3579375;-75
2023/03/20 01:09:27;;;;;;;;;22.50;19.00;;;;;8.57;58.66;102055.13;2013729;28;2838131;-75
2023/03/20 01:10:40;;;;;;;;;26.00;24.67;;;;;8.54;58.82;102056.84;2038852;28;3578356;-75
2023/03/20 01:11:51;;;;;;;;;26.00;23.00;;;;;8.54;58.71;102059.47;2022303;28;3579414;-75
2023/03/20 01:13:05;;;;;;;;;26.20;22.40;;;;;8.53;58.78;102055.13;2025938;28;3582492;-75
2023/03/20 01:14:16;;;;;;;;;27.00;23.67;;;;;8.52;58.85;102058.59;2015350;28;3604349;-75
2023/03/20 01:15:33;;;;;;;;;25.20;20.80;;;;;8.52;58.84;102066.47;2052567;27;3582622;-75
2023/03/20 01:16:43;;;;;;;;;23.00;21.50;;;;;8.51;58.62;102069.13;2026636;27;2838816;-75
2023/03/20 01:17:55;;;;;;;;;28.00;24.20;;;;;8.51;58.95;102071.72;2014399;28;3591890;-75
2023/03/20 01:19:12;;;;;;;;;19.00;18.00;;;;;8.49;58.87;102066.50;2030852;28;3565878;-75
2023/03/20 01:20:26;;;;;;;;;29.33;23.33;;;;;8.49;59.12;102071.75;2015202;28;3569007;-75
2023/03/20 01:21:38;;;;;;;;;28.33;24.33;;;;;8.47;58.95;102070.00;2014363;28;3600232;-75
2023/03/20 01:22:50;;;;;;;;;23.00;21.00;;;;;8.47;58.95;102063.00;2031961;28;3586682;-75
2023/03/20 01:24:01;;;;;;;;;25.33;20.00;;;;;8.46;58.76;102066.50;2025289;28;3579418;-75
2023/03/20 01:25:15;;;;;;;;;27.00;20.40;;;;;8.45;59.21;102072.59;2034727;28;3580430;-75
2023/03/20 01:26:32;;;;;;;;;27.00;22.00;;;;;8.44;58.81;102070.88;1989597;27;3573151;-75
2023/03/20 01:27:48;;;;;;;;;21.67;19.67;;;;;8.43;58.73;102072.63;2015761;28;3560689;-75
2023/03/20 01:28:58;;;;;;;;;22.50;20.00;;;;;8.43;58.90;102071.75;2016558;28;2836847;-75
2023/03/20 01:30:17;;;;;;;;;25.00;23.00;;;;;8.43;58.62;102070.00;2002299;28;3578326;-75
2023/03/20 01:31:28;;;;;;;;;27.00;23.00;;;;;8.41;59.08;102063.03;2015820;28;2850256;-75
2023/03/20 01:32:42;;;;;;;;;22.00;18.33;;;;;8.40;59.26;102070.00;2033404;28;3566890;-75
2023/03/20 01:33:53;;;;;;;;;26.50;20.00;;;;;8.39;59.04;102065.66;2016848;28;2851350;-75
2023/03/20 01:35:05;;;;;;;;;25.00;22.00;;;;;8.39;58.87;102070.91;2005935;28;3572072;-75
2023/03/20 01:36:21;;;;;;;;;23.00;21.67;;;;;8.40;58.89;102069.13;2023287;28;3566906;-75
2023/03/20 01:37:32;;;;;;;;;26.67;23.00;;;;;8.38;59.06;102069.13;2023007;28;3589826;-75
2023/03/20 01:38:45;;;;;;;;;28.33;23.00;;;;;8.38;58.67;102065.63;2036519;27;3598176;-75
2023/03/20 01:39:56;;;;;;;;;32.67;26.00;;;;;8.36;59.00;102068.28;1991606;28;3606486;-75
2023/03/20 01:41:16;;;;;;;;;25.20;22.20;;;;;8.35;58.93;102066.50;2002602;28;3578668;-75
2023/03/20 01:42:29;;;;;;;;;25.67;25.00;;;;;8.34;59.12;102072.66;2007951;28;3582508;-75
2023/03/20 01:43:40;;;;;;;;;29.00;25.50;;;;;8.33;59.22;102074.38;2015243;28;2863834;-75
2023/03/20 01:44:51;;;;;;;;;25.50;24.00;;;;;8.33;59.24;102071.78;1992825;28;2838249;-75
2023/03/20 01:46:17;;;;;;;;;27.67;21.67;;;;;8.32;59.33;102071.78;2014520;28;3599205;-75
2023/03/20 01:47:28;;;;;;;;;28.00;22.50;;;;;8.31;58.95;102067.41;1991911;28;2846122;-75
2023/03/20 01:48:48;;;;;;;;;26.00;24.80;;;;;8.30;58.86;102066.53;1995717;28;3591863;-75
2023/03/20 01:50:25;;;;;;;;;31.00;26.00;;;;;8.28;58.86;102065.66;2016141;28;2862761;-75
2023/03/20 01:51:36;;;;;;;;;24.00;21.33;;;;;8.26;59.28;102064.81;1989641;28;3579401;-75
2023/03/20 01:53:00;;;;;;;;;30.20;25.00;;;;;8.26;59.44;102067.41;2034250;28;3608539;-75
2023/03/20 01:54:25;;;;;;;;;27.00;24.00;;;;;8.24;58.78;102069.19;1992861;28;2844016;-75
2023/03/20 01:55:37;;;;;;;;;26.00;25.00;;;;;8.24;58.86;102066.56;1991839;28;2834637;-75
2023/03/20 01:57:03;;;;;;;;;27.33;22.67;;;;;8.24;59.31;102070.91;2015189;28;3592268;-75
2023/03/20 01:58:20;;;;;;;;;29.50;26.50;;;;;8.22;59.19;102060.44;2015762;28;2856574;-75
2023/03/20 01:59:48;;;;;;;;;32.00;29.50;;;;;8.22;59.07;102063.06;1992704;28;2855535;-75
2023/03/20 02:00:59;;;;;;;;;31.33;24.33;;;;;8.20;59.38;102060.44;1989600;28;3602385;-75
2023/03/20 02:02:20;;;;;;;;;35.60;27.60;;;;;8.19;59.57;102057.81;2007025;28;3615176;-75
2023/03/20 02:03:31;;;;;;;;;29.00;26.00;;;;;8.18;59.13;102054.31;1992057;28;2852347;-75
2023/03/20 02:04:46;;;;;;;;;28.00;24.33;;;;;8.17;59.27;102054.34;1991813;28;3596079;-75
2023/03/20 02:05:58;;;;;;;;;28.33;26.33;;;;;8.17;59.01;102054.34;1989984;28;3602306;-75
2023/03/20 02:07:10;;;;;;;;;28.00;26.00;;;;;8.16;59.08;102060.44;1991735;28;2854431;-75
2023/03/20 02:08:27;;;;;;;;;23.50;21.00;;;;;8.16;59.15;102063.06;1991265;28;2839853;-75
2023/03/20 02:09:37;;;;;;;;;37.00;31.00;;;;;8.14;59.78;102065.69;1992540;28;2852344;-75
2023/03/20 02:10:49;;;;;;;;;31.00;28.20;;;;;8.14;59.37;102070.06;2010434;28;3581466;-75
2023/03/20 02:12:02;;;;;;;;;38.80;29.20;;;;;8.13;59.63;102068.28;2031097;28;3607498;-75
2023/03/20 02:13:15;;;;;;;;;32.00;28.00;;;;;8.12;59.32;102066.56;1992412;28;2855466;-75
2023/03/20 02:14:26;;;;;;;;;34.50;31.00;;;;;8.12;59.70;102061.34;1994059;28;2841873;-75
2023/03/20 02:16:02;;;;;;;;;37.00;32.00;;;;;8.11;59.66;102065.69;1991633;28;2855799;-75
2023/03/20 02:17:14;;;;;;;;;39.50;30.00;;;;;8.08;59.32;102053.47;1992627;28;2871110;-75
2023/03/20 02:18:26;;;;;;;;;35.33;30.00;;;;;8.07;59.92;102056.97;1990579;28;3612774;-75
2023/03/20 02:20:12;;;;;;;;;31.00;26.80;;;;;8.07;59.55;102058.72;1999116;28;3597057;-75
2023/03/20 02:21:51;;;;;;;;;33.00;31.00;;;;;8.05;60.00;102060.47;1998855;27;2834679;-75
2023/03/20 02:23:36;;;;;;;;;39.00;34.00;;;;;8.02;59.63;102053.50;2017315;28;2858677;-75
2023/03/20 02:25:03;;;;;;;;;30.00;28.00;;;;;8.02;59.99;102050.00;1991183;28;2837753;-75
2023/03/20 02:26:45;;;;;;;;;35.00;32.00;;;;;8.01;59.50;102045.63;2016774;28;2850956;-75
2023/03/20 02:28:17;;;;;;;;;32.00;29.00;;;;;7.99;59.95;102046.50;1987211;28;2839844;-75
2023/03/20 02:29:47;;;;;;;;;35.67;33.00;;;;;7.98;59.51;102049.09;2027853;27;3595025;-75
2023/03/20 02:31:13;;;;;;;;;39.00;35.00;;;;;7.97;59.84;102048.25;2025322;27;2857575;-75
2023/03/20 02:32:48;;;;;;;;;38.00;33.00;;;;;7.97;60.15;102057.84;1993045;28;2855485;-75
2023/03/20 02:34:23;;;;;;;;;40.50;34.00;;;;;7.94;59.94;102052.63;2000490;28;2859627;-75
2023/03/20 02:35:53;;;;;;;;;44.33;35.67;;;;;7.93;60.12;102050.84;1994577;28;3600266;-75
2023/03/20 02:37:34;;;;;;;;;34.00;32.00;;;;;7.91;59.91;102048.25;1993129;28;2854454;-75
2023/03/20 02:39:14;;;;;;;;;40.50;32.50;;;;;7.90;60.16;102048.25;1986097;28;2865904;-75
2023/03/20 02:40:53;;;;;;;;;40.50;35.00;;;;;7.90;60.37;102050.88;1993900;28;2873209;-75
2023/03/20 02:42:21;;;;;;;;;38.33;33.00;;;;;7.88;60.45;102050.88;1989304;28;3587756;-75
2023/03/20 02:43:57;;;;;;;;;35.00;33.50;;;;;7.86;60.44;102045.63;2016447;28;2856630;-75
2023/03/20 02:45:28;;;;;;;;;44.00;34.00;;;;;7.86;60.11;102048.25;1991224;28;2877343;-75
2023/03/20 02:47:03;;;;;;;;;42.50;34.00;;;;;7.85;60.29;102056.97;1994623;28;2870047;-75
2023/03/20 02:48:34;;;;;;;;;45.00;36.50;;;;;7.84;60.63;102046.50;1992657;28;2855501;-75
2023/03/20 02:49:53;;;;;;;;;43.33;36.67;;;;;7.83;60.26;102040.41;1991796;28;3601331;-75
2023/03/20 02:51:39;;;;;;;;;44.33;35.33;;;;;7.83;60.32;102047.38;1992714;28;3583617;-75
2023/03/20 02:53:11;;;;;;;;;40.00;34.00;;;;;7.81;60.13;102047.38;1992342;28;2857552;-75
2023/03/20 02:54:40;;;;;;;;;51.67;42.00;;;;;7.80;60.75;102044.78;1992901;28;3590865;-75
2023/03/20 02:55:59;;;;;;;;;50.00;37.67;;;;;7.79;60.36;102043.91;2016128;28;3601315;-75
2023/03/20 02:57:19;;;;;;;;;51.67;41.67;;;;;7.78;60.47;102041.28;2015815;28;3588090;-75
2023/03/20 02:58:49;;;;;;;;;49.00;39.00;;;;;7.77;60.42;102050.88;2014203;28;3596084;-75
2023/03/20 03:00:16;;;;;;;;;50.67;40.33;;;;;7.75;60.36;102048.25;1994347;28;3596057;-75
2023/03/20 03:01:46;;;;;;;;;49.67;38.67;;;;;7.75;60.36;102044.78;1992480;28;3625233;-75
2023/03/20 03:03:14;;;;;;;;;51.00;41.33;;;;;7.73;60.70;102038.69;1991758;28;3571089;-75
2023/03/20 03:04:31;;;;;;;;;48.33;38.67;;;;;7.72;60.79;102043.03;2015818;28;3601292;-75
2023/03/20 03:05:50;;;;;;;;;52.67;43.00;;;;;7.71;60.54;102046.50;1991733;28;3575251;-75
2023/03/20 03:07:06;;;;;;;;;50.67;41.67;;;;;7.73;60.78;102033.44;2016710;28;3575231;-75
2023/03/20 03:08:22;;;;;;;;;48.33;40.00;;;;;7.71;60.82;102040.38;2011842;28;3598148;-75
2023/03/20 03:10:02;;;;;;;;;53.67;43.00;;;;;7.71;60.63;102043.88;1991171;28;3605499;-75
2023/03/20 03:11:14;;;;;;;;;50.33;40.00;;;;;7.70;60.93;102038.66;2013390;28;3584630;-75
2023/03/20 03:12:34;;;;;;;;;51.33;40.67;;;;;7.70;61.02;102042.16;2022891;28;3598183;-75
2023/03/20 03:13:51;;;;;;;;;49.33;34.33;;;;;7.70;60.83;102033.44;2016170;28;3627334;-75
2023/03/20 03:15:22;;;;;;;;;50.50;40.50;;;;;7.70;61.08;102042.16;1994694;28;2845388;-75
2023/03/20 03:16:37;;;;;;;;;48.33;40.33;;;;;7.69;61.35;102034.28;2016989;28;3592952;-75
2023/03/20 03:17:48;;;;;;;;;48.00;41.00;;;;;7.70;60.77;102041.28;2016828;28;2844018;-75
2023/03/20 03:19:17;;;;;;;;;42.67;36.33;;;;;7.69;60.83;102039.53;2014924;28;3588802;-75
2023/03/20 03:20:32;;;;;;;;;53.00;41.33;;;;;7.69;60.69;102031.66;1992343;28;3609599;-75
2023/03/20 03:21:46;;;;;;;;;41.33;34.67;;;;;7.68;61.22;102033.41;1996907;28;3607546;-75
2023/03/20 03:22:58;;;;;;;;;48.00;40.33;;;;;7.69;60.76;102039.53;1995543;27;3604421;-75
2023/03/20 03:24:28;;;;;;;;;49.50;40.50;;;;;7.68;61.17;102037.81;2017716;28;2850272;-75
2023/03/20 03:25:40;;;;;;;;;41.00;35.50;;;;;7.69;60.61;102039.53;1992999;28;2855471;-75
2023/03/20 03:26:52;;;;;;;;;46.00;38.33;;;;;7.68;61.14;102038.66;1991952;28;3609634;-75
2023/03/20 03:28:22;;;;;;;;;50.67;40.67;;;;;7.67;60.67;102039.53;1996863;28;3587791;-75
2023/03/20 03:29:38;;;;;;;;;48.50;40.00;;;;;7.68;61.19;102043.03;2018169;28;2855497;-75
2023/03/20 03:30:52;;;;;;;;;44.33;38.67;;;;;7.68;60.50;102037.81;1996531;28;3597106;-75
2023/03/20 03:32:06;;;;;;;;;43.00;37.00;;;;;7.67;60.93;102036.03;2016656;28;2852376;-75
2023/03/20 03:33:26;;;;;;;;;51.67;41.00;;;;;7.67;61.19;102033.41;1990923;28;3598145;-75
2023/03/20 03:34:36;;;;;;;;;46.00;37.50;;;;;7.67;61.26;102038.66;1992833;28;2833595;-75
2023/03/20 03:35:52;;;;;;;;;50.00;39.00;;;;;7.68;60.93;102040.41;2028451;28;3607630;-75
2023/03/20 03:37:17;;;;;;;;;48.00;40.00;;;;;7.67;61.09;102036.03;2019249;27;3590873;-75
2023/03/20 03:38:36;;;;;;;;;48.50;36.50;;;;;7.67;61.22;102034.31;2016535;28;2864828;-75
2023/03/20 03:40:03;;;;;;;;;49.00;39.33;;;;;7.67;61.06;102029.06;1994153;28;3598174;-75
2023/03/20 03:41:30;;;;;;;;;43.33;37.33;;;;;7.67;61.45;102030.81;2032008;27;3601299;-75
2023/03/20 03:42:52;;;;;;;;;42.50;35.00;;;;;7.68;60.79;102029.94;1995590;28;2860701;-75
2023/03/20 03:44:06;;;;;;;;;41.00;35.50;;;;;7.67;61.02;102033.41;1992592;28;2853398;-75
2023/03/20 03:45:37;;;;;;;;;46.00;38.33;;;;;7.67;61.57;102036.03;1991557;28;3587758;-75
2023/03/20 03:46:55;;;;;;;;;48.00;38.00;;;;;7.67;60.99;102030.81;2013965;28;2868024;-75
2023/03/20 03:48:13;;;;;;;;;44.00;37.50;;;;;7.67;61.13;102036.03;1991965;28;2851335;-75
2023/03/20 03:49:32;;;;;;;;;39.00;34.00;;;;;7.67;61.34;102031.69;1991402;28;2861053;-75
2023/03/20 03:50:49;;;;;;;;;45.33;38.67;;;;;7.67;61.55;102036.03;1992252;28;3587731;-75
2023/03/20 03:52:07;;;;;;;;;49.33;38.67;;;;;7.67;61.22;102029.06;2016046;28;3584621;-75
2023/03/20 03:53:47;;;;;;;;;48.67;40.33;;;;;7.67;61.54;102030.81;2015768;28;3579402;-75
2023/03/20 03:55:09;;;;;;;;;53.00;41.00;;;;;7.67;61.06;102029.06;2015601;28;3597105;-75
2023/03/20 03:56:24;;;;;;;;;40.00;35.00;;;;;7.67;61.37;102022.97;1992952;28;2853385;-75
2023/03/20 03:57:44;;;;;;;;;46.33;36.67;;;;;7.65;61.38;102023.81;1991808;28;3607524;-75
2023/03/20 03:59:00;;;;;;;;;39.33;35.67;;;;;7.67;61.71;102025.56;1991169;28;3599228;-75
2023/03/20 04:00:18;;;;;;;;;45.33;37.00;;;;;7.65;61.09;102023.81;1991650;28;3592942;-75
2023/03/20 04:01:34;;;;;;;;;43.67;36.33;;;;;7.65;61.50;102022.97;2009785;28;3585676;-75
2023/03/20 04:02:49;;;;;;;;;42.00;37.00;;;;;7.64;61.00;102015.97;2009831;28;2858618;-75
2023/03/20 04:04:02;;;;;;;;;44.00;38.00;;;;;7.64;61.41;102029.94;1993225;28;2851303;-75
2023/03/20 04:05:15;;;;;;;;;42.00;34.00;;;;;7.63;61.16;102017.72;2013285;28;2876317;-75
2023/03/20 04:06:26;;;;;;;;;35.50;32.00;;;;;7.62;61.17;102021.22;1993792;28;2843131;-75
2023/03/20 04:07:37;;;;;;;;;44.50;37.00;;;;;7.62;61.00;102020.34;2017147;28;2858617;-75
2023/03/20 04:08:48;;;;;;;;;48.00;39.00;;;;;7.62;61.02;102025.56;1992519;28;2865854;-75
2023/03/20 04:10:00;;;;;;;;;42.33;36.00;;;;;7.62;61.50;102025.56;2017116;28;3584615;-75
2023/03/20 04:11:17;;;;;;;;;46.33;37.33;;;;;7.61;61.44;102027.31;2031909;28;3615171;-75
2023/03/20 04:12:33;;;;;;;;;44.33;38.33;;;;;7.60;61.29;102033.44;1991495;28;3593974;-75
2023/03/20 04:13:47;;;;;;;;;45.00;38.50;;;;;7.60;61.62;102028.19;1993774;28;2852923;-75
2023/03/20 04:14:58;;;;;;;;;48.00;39.00;;;;;7.60;61.32;102027.31;2017194;28;2848174;-75
2023/03/20 04:16:15;;;;;;;;;51.00;39.80;;;;;7.59;61.45;102028.19;2032810;28;3602313;-75
2023/03/20 04:17:26;;;;;;;;;50.67;40.33;;;;;7.59;61.67;102036.03;2022172;27;3581506;-75
2023/03/20 04:18:39;;;;;;;;;49.60;40.80;;;;;7.58;61.29;102032.53;2040897;28;3583522;-75
2023/03/20 04:19:51;;;;;;;;;50.67;40.67;;;;;7.57;61.38;102025.56;2014402;28;3592938;-75
2023/03/20 04:21:03;;;;;;;;;53.00;41.67;;;;;7.57;61.44;102046.50;2041356;27;3605475;-75
2023/03/20 04:22:15;;;;;;;;;54.00;39.33;;;;;7.56;61.58;102039.50;2008344;27;3617963;-75
2023/03/20 04:23:26;;;;;;;;;50.00;41.67;;;;;7.56;61.50;102042.13;1998262;28;3586710;-75
2023/03/20 04:24:38;;;;;;;;;51.33;42.33;;;;;7.55;61.73;102045.63;2032164;28;3599197;-74
2023/03/20 04:25:50;;;;;;;;;29.00;25.50;;;;;7.56;61.38;102039.50;2032603;28;2815884;-74
2023/03/20 04:27:01;;;;;;;;;50.67;41.00;;;;;7.56;61.18;102043.88;1990326;28;3579362;-75
2023/03/20 04:28:15;;;;;;;;;48.00;40.00;;;;;7.56;61.38;102049.97;2038131;28;3580464;-75
2023/03/20 04:29:26;;;;;;;;;49.33;41.67;;;;;7.56;61.62;102051.72;2027747;27;3576282;-75
2023/03/20 04:30:38;;;;;;;;;50.60;40.20;;;;;7.55;61.82;102050.88;2036454;28;3602626;-74
2023/03/20 04:31:50;;;;;;;;;49.00;39.67;;;;;7.56;61.97;102051.72;2008864;28;3574195;-74
2023/03/20 04:33:02;;;;;;;;;52.33;43.33;;;;;7.54;61.71;102044.75;2031756;28;3592951;-74
2023/03/20 04:34:15;;;;;;;;;52.00;41.33;;;;;7.56;61.83;102042.13;2027038;28;3593472;-75
2023/03/20 04:35:26;;;;;;;;;50.00;41.67;;;;;7.56;62.05;102049.97;2015525;28;3577327;-75
2023/03/20 04:36:39;;;;;;;;;53.57;41.57;;;;;7.56;61.76;102052.59;2031037;28;3605535;-75
2023/03/20 04:37:51;;;;;;;;;49.00;41.00;;;;;7.56;61.85;102044.75;2008310;28;3575264;-75
2023/03/20 04:39:03;;;;;;;;;52.00;42.00;;;;;7.58;61.93;102047.38;2031443;28;3592948;-75
2023/03/20 04:40:15;;;;;;;;;41.33;36.67;;;;;7.58;61.73;102052.63;2032763;28;3605450;-75
2023/03/20 04:41:27;;;;;;;;;47.33;37.33;;;;;7.58;62.10;102050.84;2029564;28;3605490;-75
2023/03/20 04:42:40;;;;;;;;;39.29;34.29;;;;;7.59;61.94;102051.72;2006840;28;3591937;-75
2023/03/20 04:43:52;;;;;;;;;51.00;40.60;;;;;7.60;61.87;102043.03;2012756;28;3586670;-75
2023/03/20 04:45:05;;;;;;;;;44.60;35.60;;;;;7.61;61.81;102055.22;2040999;28;3610619;-75
2023/03/20 04:46:16;;;;;;;;;46.67;38.00;;;;;7.63;62.01;102053.50;1989006;28;3602350;-75
2023/03/20 04:47:29;;;;;;;;;42.00;35.33;;;;;7.63;61.80;102043.88;2030353;28;3589818;-75
2023/03/20 04:48:40;;;;;;;;;48.33;40.00;;;;;7.65;61.92;102051.75;2042400;27;3603348;-75
2023/03/20 04:49:52;;;;;;;;;44.00;37.40;;;;;7.66;62.09;102053.47;2045938;27;3604361;-75
2023/03/20 04:51:05;;;;;;;;;32.40;31.80;;;;;7.66;62.09;102048.25;2013573;28;3593992;-75
2023/03/20 04:52:16;;;;;;;;;44.00;37.33;;;;;7.68;61.80;102054.34;1982384;28;3613919;-75
2023/03/20 04:53:28;;;;;;;;;44.00;35.33;;;;;7.69;62.23;102052.63;2016608;27;3578365;-75
2023/03/20 04:54:40;;;;;;;;;44.00;38.00;;;;;7.70;61.87;102049.13;2043693;27;3609571;-75
2023/03/20 04:55:52;;;;;;;;;39.60;35.00;;;;;7.71;62.53;102053.47;2005727;28;3586639;-75
2023/03/20 04:57:04;;;;;;;;;41.00;34.67;;;;;7.72;62.39;102050.00;2026839;28;3601396;-75
2023/03/20 04:58:16;;;;;;;;;41.80;35.40;;;;;7.72;61.67;102047.38;2013503;28;3599174;-75
2023/03/20 04:59:28;;;;;;;;;41.40;35.60;;;;;7.73;62.13;102044.75;2013280;28;3589783;-75
2023/03/20 05:00:40;;;;;;;;;40.00;34.00;;;;;7.75;61.90;102043.00;2007594;28;3603377;-75
2023/03/20 05:01:52;;;;;;;;;44.60;35.40;;;;;7.76;62.04;102043.88;2006433;28;3605388;-75
2023/03/20 05:03:04;;;;;;;;;37.60;34.40;;;;;7.76;61.79;102039.53;2037510;28;3580444;-75
2023/03/20 05:04:16;;;;;;;;;33.40;30.20;;;;;7.77;61.59;102045.66;2014090;28;3587044;-75
2023/03/20 05:05:28;;;;;;;;;46.80;37.60;;;;;7.79;61.73;102040.41;1999213;28;3581489;-75
2023/03/20 05:06:40;;;;;;;;;42.40;33.80;;;;;7.79;61.78;102043.91;2021819;28;3624175;-75
2023/03/20 05:07:52;;;;;;;;;7.00;1.00;;;;;7.81;61.47;102041.25;2019858;28;2749334;-75
2023/03/20 05:09:02;;;;;;;;;35.50;32.00;;;;;7.82;61.73;102045.63;2015805;28;2862768;-75
2023/03/20 05:10:14;;;;;;;;;34.60;32.00;;;;;7.83;62.13;102042.13;2007837;28;3585621;-75
2023/03/20 05:11:27;;;;;;;;;38.20;33.80;;;;;7.83;61.54;102037.78;2033812;28;3612725;-75
2023/03/20 05:12:38;;;;;;;;;36.00;33.50;;;;;7.83;61.63;102032.53;1994965;28;2852316;-75
2023/03/20 05:13:50;;;;;;;;;37.20;31.80;;;;;7.84;61.61;102042.16;2013516;28;3584566;-75
2023/03/20 05:15:02;;;;;;;;;35.20;31.20;;;;;7.85;61.78;102036.03;2002380;28;3605400;-75
2023/03/20 05:16:14;;;;;;;;;36.80;33.40;;;;;7.86;61.69;102037.78;2016456;27;3603312;-75
2023/03/20 05:17:26;;;;;;;;;38.00;33.80;;;;;7.88;61.52;102043.00;2014174;28;3612695;-75
2023/03/20 05:18:38;;;;;;;;;35.60;31.80;;;;;7.88;61.87;102043.88;2012702;28;3589143;-75
2023/03/20 05:19:50;;;;;;;;;39.20;34.60;;;;;7.90;62.11;102037.78;2012604;28;3603316;-75
2023/03/20 05:21:03;;;;;;;;;38.80;33.20;;;;;7.91;62.15;102045.63;2011765;28;3591858;-75
2023/03/20 05:22:13;;;;;;;;;33.00;32.00;;;;;7.93;62.15;102045.63;1993336;28;2852309;-75
2023/03/20 05:23:25;;;;;;;;;35.60;32.00;;;;;7.92;61.69;102034.31;2013639;28;3580416;-75
2023/03/20 05:24:37;;;;;;;;;33.33;31.00;;;;;7.93;61.46;102035.16;2004139;28;3587728;-75
2023/03/20 05:25:49;;;;;;;;;37.00;30.00;;;;;7.94;61.82;102036.91;2030119;28;3582876;-75
2023/03/20 05:27:01;;;;;;;;;29.80;28.20;;;;;7.94;61.89;102036.91;2036439;28;3582499;-75
2023/03/20 05:28:13;;;;;;;;;28.40;23.80;;;;;7.95;61.56;102036.03;2011903;28;3593946;-75
2023/03/20 05:29:25;;;;;;;;;33.40;28.20;;;;;7.96;61.98;102037.78;2013439;28;3592916;-75
2023/03/20 05:30:37;;;;;;;;;35.00;31.80;;;;;7.97;61.49;102036.91;2013804;28;3582511;-75
2023/03/20 05:31:49;;;;;;;;;31.00;27.60;;;;;7.97;61.55;102035.16;2009451;28;3585613;-75
2023/03/20 05:33:01;;;;;;;;;31.20;29.60;;;;;7.99;61.79;102036.03;2037340;28;3574150;-75
2023/03/20 05:34:13;;;;;;;;;35.60;31.80;;;;;8.00;61.64;102042.13;2037198;28;3583534;-75
2023/03/20 05:35:25;;;;;;;;;31.80;30.00;;;;;8.01;61.90;102035.16;2008514;28;3587135;-75
2023/03/20 05:36:37;;;;;;;;;36.80;32.00;;;;;8.02;61.80;102031.66;2025972;27;3597090;-75
2023/03/20 05:37:49;;;;;;;;;34.00;31.00;;;;;8.02;61.39;102035.16;2023715;27;3585628;-75
2023/03/20 05:39:01;;;;;;;;;33.00;29.20;;;;;8.02;62.05;102035.16;2009526;28;3593945;-75
2023/03/20 05:40:14;;;;;;;;;33.00;31.00;;;;;8.03;61.72;102039.50;2013382;28;3583518;-75
2023/03/20 05:41:25;;;;;;;;;33.50;29.00;;;;;8.03;61.34;102033.38;1994758;28;2858562;-75
2023/03/20 05:42:36;;;;;;;;;36.00;32.00;;;;;8.03;61.16;102036.88;1993987;28;2856498;-75
2023/03/20 05:43:48;;;;;;;;;37.60;31.80;;;;;8.04;61.48;102035.16;2014909;28;3585692;-75
2023/03/20 05:45:00;;;;;;;;;34.80;31.60;;;;;8.04;61.27;102038.66;2036987;28;3583940;-75